createdAt,value
2023-06-29T00:00:32.294Z,5.40
2023-06-29T00:03:19.797Z,5.80
2023-06-29T00:05:47.340Z,6.45
2023-06-29T00:08:14.595Z,7.97
2023-06-29T00:10:41.683Z,6.50
2023-06-29T00:13:08.985Z,6.82
2023-06-29T00:15:36.109Z,6.70
2023-06-29T00:18:03.562Z,7.45
2023-06-29T00:20:30.761Z,5.68
2023-06-29T00:22:58.163Z,6.72
2023-06-29T00:25:25.339Z,7.05
2023-06-29T00:27:52.706Z,5.22
2023-06-29T00:30:21.003Z,6.85
2023-06-29T00:32:48.307Z,8.00
2023-06-29T00:35:15.678Z,6.43
2023-06-29T00:37:45.584Z,4.60
2023-06-29T00:40:13.672Z,5.88
2023-06-29T00:42:41.595Z,5.47
2023-06-29T00:45:11.521Z,5.88
2023-06-29T00:47:39.399Z,6.65
2023-06-29T00:50:08.137Z,7.13
2023-06-29T00:52:36.014Z,6.88
2023-06-29T00:55:03.958Z,5.82
2023-06-29T00:57:31.286Z,4.97
2023-06-29T01:00:01.648Z,6.18
2023-06-29T01:02:31.222Z,4.75
2023-06-29T01:04:59.400Z,4.60
2023-06-29T01:08:03.735Z,4.25
2023-06-29T01:10:34.606Z,5.13
2023-06-29T01:13:04.868Z,4.88
2023-06-29T01:15:32.392Z,4.57
2023-06-29T01:18:04.692Z,4.80
2023-06-29T01:20:34.229Z,5.22
2023-06-29T01:23:24.641Z,5.95
2023-06-29T01:25:56.075Z,6.00
2023-06-29T01:28:27.577Z,5.28
2023-06-29T01:30:55.075Z,4.97
2023-06-29T01:33:25.576Z,5.28
2023-06-29T01:36:02.377Z,4.60
2023-06-29T01:38:40.431Z,4.57
2023-06-29T01:41:10.852Z,5.63
2023-06-29T01:43:39.006Z,6.68
2023-06-29T01:46:06.519Z,4.97
2023-06-29T01:48:36.759Z,5.13
2023-06-29T01:51:04.271Z,5.03
2023-06-29T01:53:32.958Z,6.22
2023-06-29T01:56:05.232Z,6.53
2023-06-29T01:58:32.673Z,5.38
2023-06-29T02:00:59.766Z,5.82
2023-06-29T02:03:27.464Z,5.32
2023-06-29T02:05:54.659Z,4.57
2023-06-29T02:08:22.066Z,4.22
2023-06-29T02:10:49.168Z,4.82
2023-06-29T02:13:16.476Z,4.68
2023-06-29T02:15:43.750Z,3.85
2023-06-29T02:18:11.673Z,5.35
2023-06-29T02:20:41.695Z,5.68
2023-06-29T02:23:09.099Z,4.55
2023-06-29T02:25:36.163Z,4.00
2023-06-29T02:28:04.231Z,4.45
2023-06-29T02:30:31.295Z,4.32
2023-06-29T02:32:58.700Z,4.47
2023-06-29T02:35:25.850Z,5.78
2023-06-29T02:37:53.418Z,4.38
2023-06-29T02:40:20.796Z,4.20
2023-06-29T02:42:48.106Z,4.90
2023-06-29T02:45:15.624Z,4.22
2023-06-29T02:47:43.456Z,5.10
2023-06-29T02:50:10.984Z,4.75
2023-06-29T02:52:45.359Z,4.20
2023-06-29T02:55:12.429Z,5.25
2023-06-29T02:57:40.531Z,3.95
2023-06-29T03:00:10.353Z,4.50
2023-06-29T03:02:38.658Z,4.22
2023-06-29T03:05:06.558Z,4.50
2023-06-29T03:07:36.264Z,4.93
2023-06-29T03:10:03.568Z,4.22
2023-06-29T03:12:31.313Z,5.80
2023-06-29T03:14:58.314Z,3.75
2023-06-29T03:17:25.819Z,4.43
2023-06-29T03:19:52.878Z,3.72
2023-06-29T03:22:20.175Z,4.90
2023-06-29T03:24:47.191Z,4.15
2023-06-29T03:27:14.500Z,4.90
2023-06-29T03:29:41.457Z,3.80
2023-06-29T03:32:09.299Z,4.22
2023-06-29T03:34:36.336Z,3.78
2023-06-29T03:37:03.974Z,3.70
2023-06-29T03:39:31.028Z,4.53
2023-06-29T03:41:58.332Z,5.93
2023-06-29T03:44:25.320Z,4.10
2023-06-29T03:46:53.087Z,5.63
2023-06-29T03:49:20.093Z,3.60
2023-06-29T03:51:47.377Z,4.53
2023-06-29T03:54:14.538Z,3.55
2023-06-29T03:56:41.844Z,5.82
2023-06-29T03:59:08.997Z,6.47
2023-06-29T04:01:36.263Z,4.82
2023-06-29T04:04:03.356Z,4.63
2023-06-29T04:06:30.786Z,4.97
2023-06-29T04:08:57.831Z,6.38
2023-06-29T04:11:25.087Z,7.70
2023-06-29T04:13:52.425Z,5.85
2023-06-29T04:16:19.744Z,8.60
2023-06-29T04:18:46.803Z,6.30
2023-06-29T04:21:14.159Z,7.85
2023-06-29T04:23:41.603Z,7.07
2023-06-29T04:26:10.690Z,9.07
2023-06-29T04:28:37.904Z,7.55
2023-06-29T04:31:05.273Z,8.35
2023-06-29T04:33:32.525Z,8.13
2023-06-29T04:35:59.796Z,9.68
2023-06-29T04:38:28.720Z,9.48
2023-06-29T04:41:04.267Z,9.65
2023-06-29T04:43:32.627Z,10.07
2023-06-29T04:46:05.207Z,9.45
2023-06-29T04:48:38.810Z,8.93
2023-06-29T04:51:07.259Z,11.77
2023-06-29T04:53:38.069Z,11.50
2023-06-29T04:56:07.969Z,17.10
2023-06-29T04:58:35.369Z,12.73
2023-06-29T05:01:02.944Z,12.52
2023-06-29T05:03:30.830Z,10.05
2023-06-29T05:05:58.154Z,11.68
2023-06-29T05:08:25.141Z,12.82
2023-06-29T05:10:52.400Z,12.57
2023-06-29T05:13:19.474Z,14.90
2023-06-29T05:15:49.026Z,11.63
2023-06-29T05:18:16.960Z,11.00
2023-06-29T05:20:44.664Z,10.52
2023-06-29T05:23:12.611Z,10.98
2023-06-29T05:25:42.066Z,11.20
2023-06-29T05:28:09.615Z,9.27
2023-06-29T05:30:37.200Z,9.73
2023-06-29T05:33:05.678Z,10.50
2023-06-29T05:35:35.521Z,10.10
2023-06-29T05:38:03.322Z,11.25
2023-06-29T05:40:30.927Z,13.02
2023-06-29T05:42:58.036Z,10.75
2023-06-29T05:45:25.363Z,10.30
2023-06-29T05:47:52.386Z,10.90
2023-06-29T05:50:21.678Z,8.02
2023-06-29T05:52:50.996Z,9.32
2023-06-29T05:55:20.435Z,9.57
2023-06-29T05:57:48.335Z,8.98
2023-06-29T06:00:16.608Z,8.68
2023-06-29T06:02:45.863Z,9.65
2023-06-29T06:05:13.950Z,10.45
2023-06-29T06:07:41.293Z,11.85
2023-06-29T06:10:09.112Z,12.93
2023-06-29T06:12:36.179Z,12.13
2023-06-29T06:15:06.863Z,10.45
2023-06-29T06:17:34.084Z,9.57
2023-06-29T06:20:02.553Z,9.10
2023-06-29T06:22:29.673Z,9.95
2023-06-29T06:24:57.101Z,11.02
2023-06-29T06:27:24.898Z,9.55
2023-06-29T06:29:52.202Z,12.98
2023-06-29T06:32:21.250Z,12.00
2023-06-29T06:34:51.961Z,11.95
2023-06-29T06:37:20.325Z,10.10
2023-06-29T06:39:47.824Z,9.52
2023-06-29T06:42:14.975Z,8.73
2023-06-29T06:44:54.014Z,9.48
2023-06-29T06:47:21.730Z,11.88
2023-06-29T06:49:49.210Z,10.50
2023-06-29T06:52:16.464Z,10.52
2023-06-29T06:54:43.960Z,9.13
2023-06-29T06:57:11.503Z,11.13
2023-06-29T06:59:39.019Z,8.80
2023-06-29T07:02:07.639Z,9.27
2023-06-29T07:04:35.968Z,8.15
2023-06-29T07:07:04.554Z,9.30
2023-06-29T07:09:32.034Z,9.25
2023-06-29T07:11:59.631Z,9.10
2023-06-29T07:14:27.272Z,9.90
2023-06-29T07:16:56.085Z,9.20
2023-06-29T07:24:23.960Z,10.10
2023-06-29T07:26:51.236Z,7.22
2023-06-29T07:29:18.661Z,7.78
2023-06-29T07:31:46.212Z,9.48
2023-06-29T07:34:13.636Z,9.13
2023-06-29T07:36:41.221Z,8.35
2023-06-29T07:39:08.745Z,9.35
2023-06-29T07:41:35.905Z,9.25
2023-06-29T07:44:03.256Z,11.15
2023-06-29T07:46:32.795Z,9.23
2023-06-29T07:49:00.527Z,8.13
2023-06-29T07:51:33.282Z,7.88
2023-06-29T07:54:05.457Z,9.95
2023-06-29T07:59:03.587Z,8.88
2023-06-29T08:01:31.162Z,9.05
2023-06-29T08:04:03.089Z,9.43
2023-06-29T08:09:03.606Z,8.68
2023-06-29T08:11:30.974Z,9.13
2023-06-29T08:13:58.390Z,9.32
2023-06-29T08:16:25.795Z,7.50
2023-06-29T08:18:55.288Z,8.98
2023-06-29T08:21:22.372Z,9.02
2023-06-29T08:23:51.773Z,8.48
2023-06-29T08:26:19.402Z,7.90
2023-06-29T08:28:46.897Z,8.45
2023-06-29T08:31:14.152Z,9.68
2023-06-29T08:33:41.886Z,9.10
2023-06-29T08:36:09.002Z,8.82
2023-06-29T08:38:36.462Z,7.80
2023-06-29T08:41:06.642Z,9.30
2023-06-29T08:43:34.114Z,7.97
2023-06-29T08:46:04.111Z,8.32
2023-06-29T08:48:35.392Z,8.07
2023-06-29T08:51:08.794Z,8.90
2023-06-29T08:53:37.151Z,8.70
2023-06-29T08:56:05.705Z,8.73
2023-06-29T08:58:33.726Z,7.45
2023-06-29T09:01:02.361Z,8.80
2023-06-29T09:03:30.585Z,8.05
2023-06-29T09:05:58.068Z,9.98
2023-06-29T09:08:25.844Z,10.25
2023-06-29T09:10:53.430Z,9.10
2023-06-29T09:13:20.789Z,11.27
2023-06-29T09:15:50.623Z,9.80
2023-06-29T09:18:24.586Z,9.45
2023-06-29T09:20:58.261Z,8.98
2023-06-29T09:23:27.266Z,8.25
2023-06-29T09:25:58.413Z,8.23
2023-06-29T09:28:27.237Z,8.77
2023-06-29T09:30:56.145Z,8.68
2023-06-29T09:33:26.727Z,9.70
2023-06-29T09:35:54.562Z,11.10
2023-06-29T09:38:22.229Z,9.07
2023-06-29T09:40:55.365Z,7.72
2023-06-29T09:43:29.171Z,7.78
2023-06-29T09:46:08.480Z,9.88
2023-06-29T09:49:10.859Z,8.93
2023-06-29T09:51:39.590Z,9.82
2023-06-29T09:54:13.228Z,10.77
2023-06-29T09:56:41.797Z,8.80
2023-06-29T09:59:12.522Z,9.75
2023-06-29T10:01:41.726Z,9.57
2023-06-29T10:04:09.537Z,11.65
2023-06-29T10:06:48.014Z,9.05
2023-06-29T10:09:20.671Z,7.70
2023-06-29T10:11:54.695Z,8.15
2023-06-29T10:14:33.138Z,9.05
2023-06-29T10:17:15.115Z,11.48
2023-06-29T10:19:46.414Z,9.40
2023-06-29T10:22:18.689Z,8.07
2023-06-29T10:24:56.029Z,9.13
2023-06-29T10:27:27.791Z,9.15
2023-06-29T10:29:55.387Z,8.23
2023-06-29T10:32:41.422Z,8.13
2023-06-29T10:35:14.176Z,8.68
2023-06-29T10:37:48.478Z,7.60
2023-06-29T10:40:22.551Z,7.57
2023-06-29T10:42:52.597Z,8.10
2023-06-29T10:45:20.125Z,8.38
2023-06-29T10:48:00.243Z,7.55
2023-06-29T10:50:32.780Z,7.15
2023-06-29T10:53:01.882Z,7.75
2023-06-29T10:55:41.761Z,7.18
2023-06-29T10:58:20.241Z,6.68
2023-06-29T11:00:50.117Z,6.78
2023-06-29T11:03:18.081Z,6.22
2023-06-29T11:05:50.174Z,7.18
2023-06-29T11:08:17.394Z,7.53
2023-06-29T11:10:46.246Z,6.65
2023-06-29T11:13:13.795Z,6.82
2023-06-29T11:15:41.413Z,7.55
2023-06-29T11:18:10.150Z,6.70
2023-06-29T11:20:41.057Z,6.00
2023-06-29T11:23:08.775Z,6.53
2023-06-29T11:25:37.860Z,8.18
2023-06-29T11:28:05.481Z,5.28
2023-06-29T11:30:32.979Z,5.90
2023-06-29T11:33:02.663Z,6.95
2023-06-29T11:35:32.306Z,5.97
2023-06-29T11:38:02.020Z,5.63
2023-06-29T11:40:30.223Z,6.75
2023-06-29T11:42:57.587Z,6.15
2023-06-29T11:45:25.000Z,5.70
2023-06-29T11:47:56.964Z,7.45
2023-06-29T11:50:25.323Z,5.47
2023-06-29T11:52:53.455Z,5.57
2023-06-29T11:55:23.737Z,5.03
2023-06-29T11:57:55.737Z,5.10
2023-06-29T12:00:27.674Z,5.03
2023-06-29T12:05:29.340Z,6.10
2023-06-29T12:08:05.380Z,4.28
2023-06-29T12:10:37.936Z,4.72
2023-06-29T12:13:06.454Z,4.63
2023-06-29T12:15:34.226Z,4.90
2023-06-29T12:18:14.765Z,4.45
2023-06-29T12:20:45.319Z,6.03
2023-06-29T12:23:15.605Z,6.25
2023-06-29T12:25:49.140Z,4.15
2023-06-29T12:28:17.217Z,3.95
2023-06-29T12:30:45.018Z,4.25
2023-06-29T12:33:14.429Z,4.00
2023-06-29T12:35:43.452Z,4.07
2023-06-29T12:38:12.437Z,3.05
2023-06-29T12:40:39.703Z,4.35
2023-06-29T12:43:06.847Z,3.38
2023-06-29T12:45:35.493Z,3.53
2023-06-29T12:48:04.753Z,3.75
2023-06-29T12:50:32.979Z,3.45
2023-06-29T12:53:00.007Z,4.05
2023-06-29T12:55:27.722Z,2.85
2023-06-29T12:57:54.772Z,3.25
2023-06-29T13:00:23.048Z,3.58
2023-06-29T13:02:54.223Z,3.22
2023-06-29T13:05:22.069Z,3.78
2023-06-29T13:07:49.249Z,3.95
2023-06-29T13:10:16.751Z,3.17
2023-06-29T13:12:43.914Z,3.10
2023-06-29T13:15:11.851Z,3.40
2023-06-29T13:17:38.894Z,2.92
2023-06-29T13:20:07.266Z,3.60
2023-06-29T13:22:35.375Z,3.65
2023-06-29T13:25:03.821Z,3.20
2023-06-29T13:27:30.985Z,3.22
2023-06-29T13:29:58.439Z,2.88
2023-06-29T13:32:25.521Z,3.92
2023-06-29T13:34:53.148Z,3.50
2023-06-29T13:37:20.293Z,3.55
2023-06-29T13:39:49.309Z,3.40
2023-06-29T13:42:17.825Z,3.58
2023-06-29T13:44:46.330Z,4.20
2023-06-29T13:47:21.966Z,3.65
2023-06-29T13:49:49.986Z,2.60
2023-06-29T13:52:17.043Z,3.53
2023-06-29T13:54:44.929Z,3.38
2023-06-29T13:57:12.079Z,3.92
2023-06-29T13:59:39.501Z,2.95
2023-06-29T14:02:07.527Z,4.05
2023-06-29T14:04:35.265Z,3.05
2023-06-29T14:07:02.384Z,3.70
2023-06-29T14:09:31.297Z,4.45
2023-06-29T14:11:59.848Z,3.17
2023-06-29T14:14:27.202Z,3.58
2023-06-29T14:16:54.227Z,3.42
2023-06-29T14:19:21.705Z,4.07
2023-06-29T14:21:48.759Z,3.80
2023-06-29T14:24:16.338Z,3.22
2023-06-29T14:26:43.271Z,3.25
2023-06-29T14:29:10.611Z,3.70
2023-06-29T14:31:37.821Z,5.18
2023-06-29T14:34:05.363Z,3.20
2023-06-29T14:36:32.494Z,3.55
2023-06-29T14:38:59.984Z,3.03
2023-06-29T14:41:27.244Z,4.55
2023-06-29T14:43:54.690Z,3.88
2023-06-29T14:46:21.777Z,3.28
2023-06-29T14:48:49.169Z,3.78
2023-06-29T14:51:16.318Z,3.85
2023-06-29T14:53:43.665Z,4.32
2023-06-29T14:56:11.434Z,4.55
2023-06-29T14:58:40.343Z,3.42
2023-06-29T15:01:08.848Z,3.20
2023-06-29T15:03:37.069Z,3.30
2023-06-29T15:06:04.305Z,3.97
2023-06-29T15:08:31.651Z,4.25
2023-06-29T15:10:58.674Z,4.82
2023-06-29T15:13:26.302Z,4.35
2023-06-29T15:15:53.359Z,3.35
2023-06-29T15:18:20.883Z,3.72
2023-06-29T15:20:49.014Z,3.70
2023-06-29T15:23:16.778Z,4.10
2023-06-29T15:25:46.155Z,3.80
2023-06-29T15:28:13.927Z,4.07
2023-06-29T15:30:52.225Z,3.25
2023-06-29T15:33:21.386Z,3.63
2023-06-29T15:35:49.402Z,3.70
2023-06-29T15:38:18.637Z,4.05
2023-06-29T15:40:47.380Z,3.83
2023-06-29T15:43:15.034Z,3.50
2023-06-29T15:45:42.437Z,3.58
2023-06-29T15:48:10.309Z,4.30
2023-06-29T15:50:39.320Z,3.85
2023-06-29T15:53:06.777Z,3.83
2023-06-29T15:55:33.904Z,3.90
2023-06-29T15:58:01.317Z,5.15
2023-06-29T16:00:30.759Z,3.78
2023-06-29T16:02:58.074Z,3.90
2023-06-29T16:05:25.364Z,4.78
2023-06-29T16:07:53.971Z,4.28
2023-06-29T16:10:21.029Z,4.97
2023-06-29T16:12:48.449Z,3.97
2023-06-29T16:15:16.318Z,3.65
2023-06-29T16:17:45.023Z,4.18
2023-06-29T16:20:12.297Z,3.85
2023-06-29T16:22:40.049Z,4.38
2023-06-29T16:25:08.122Z,5.03
2023-06-29T16:27:35.655Z,3.63
2023-06-29T16:30:03.075Z,3.15
2023-06-29T16:32:30.584Z,3.85
2023-06-29T16:34:57.729Z,3.72
2023-06-29T16:37:25.081Z,3.05
2023-06-29T16:39:52.120Z,3.40
2023-06-29T16:42:19.480Z,4.10
2023-06-29T16:44:46.541Z,4.40
2023-06-29T16:47:14.046Z,4.57
2023-06-29T16:49:41.273Z,3.70
2023-06-29T16:52:09.484Z,3.38
2023-06-29T16:54:36.478Z,3.45
2023-06-29T16:57:05.185Z,4.28
2023-06-29T16:59:32.184Z,3.95
2023-06-29T17:02:00.868Z,3.35
2023-06-29T17:04:30.028Z,3.50
2023-06-29T17:07:00.385Z,4.65
2023-06-29T17:09:27.478Z,3.95
2023-06-29T17:11:54.792Z,4.05
2023-06-29T17:14:21.827Z,2.92
2023-06-29T17:16:49.213Z,4.35
2023-06-29T17:19:16.253Z,3.40
2023-06-29T17:21:43.472Z,3.67
2023-06-29T17:24:10.524Z,3.42
2023-06-29T17:26:38.027Z,3.78
2023-06-29T17:29:05.707Z,3.47
2023-06-29T17:31:34.062Z,3.92
2023-06-29T17:34:01.397Z,3.40
2023-06-29T17:36:28.730Z,3.00
2023-06-29T17:38:56.305Z,2.70
2023-06-29T17:41:23.677Z,2.75
2023-06-29T17:43:50.856Z,3.25
2023-06-29T17:46:18.269Z,3.70
2023-06-29T17:48:45.355Z,3.33
2023-06-29T17:51:18.341Z,3.22
2023-06-29T17:53:47.363Z,3.08
2023-06-29T17:56:16.130Z,3.97
2023-06-29T17:58:46.615Z,4.22
2023-06-29T18:01:14.634Z,4.10
2023-06-29T18:03:42.747Z,3.95
2023-06-29T18:06:11.780Z,4.65
2023-06-29T18:08:40.570Z,5.05
2023-06-29T18:11:09.203Z,3.63
2023-06-29T18:13:36.387Z,4.07
2023-06-29T18:16:04.774Z,3.40
2023-06-29T18:18:33.824Z,3.28
2023-06-29T18:21:02.650Z,3.20
2023-06-29T18:23:29.751Z,3.17
2023-06-29T18:25:57.156Z,2.97
2023-06-29T18:28:24.168Z,3.63
2023-06-29T18:30:51.726Z,2.55
2023-06-29T18:33:19.047Z,3.63
2023-06-29T18:35:47.288Z,2.90
2023-06-29T18:38:14.630Z,3.10
2023-06-29T18:40:41.937Z,3.88
2023-06-29T18:43:09.345Z,3.22
2023-06-29T18:45:36.663Z,3.65
2023-06-29T18:48:04.289Z,3.45
2023-06-29T18:50:32.486Z,3.53
2023-06-29T18:53:01.465Z,3.40
2023-06-29T18:55:28.872Z,4.22
2023-06-29T18:57:56.451Z,3.55
2023-06-29T19:00:23.941Z,4.40
2023-06-29T19:02:51.019Z,3.50
2023-06-29T19:05:21.402Z,3.80
2023-06-29T19:07:48.550Z,4.28
2023-06-29T19:10:16.114Z,3.00
2023-06-29T19:12:43.153Z,4.35
2023-06-29T19:15:11.059Z,3.95
2023-06-29T19:17:38.564Z,3.33
2023-06-29T19:20:07.290Z,3.58
2023-06-29T19:22:34.558Z,5.25
2023-06-29T19:25:01.895Z,5.00
2023-06-29T19:27:29.197Z,5.03
2023-06-29T19:29:56.595Z,5.40
2023-06-29T19:32:23.603Z,5.90
2023-06-29T19:34:52.089Z,5.25
2023-06-29T19:37:19.142Z,5.18
2023-06-29T19:39:46.496Z,5.45
2023-06-29T19:42:13.467Z,4.85
2023-06-29T19:44:40.774Z,5.00
2023-06-29T19:47:07.895Z,5.13
2023-06-29T19:49:35.336Z,4.45
2023-06-29T19:52:02.501Z,4.65
2023-06-29T19:54:29.917Z,5.07
2023-06-29T19:56:56.999Z,4.38
2023-06-29T19:59:24.411Z,4.65
2023-06-29T20:01:51.695Z,7.25
2023-06-29T20:04:19.437Z,6.47
2023-06-29T20:06:47.107Z,5.38
2023-06-29T20:09:14.396Z,5.72
2023-06-29T20:11:41.471Z,5.93
2023-06-29T20:14:08.822Z,6.50
2023-06-29T20:16:36.111Z,5.07
2023-06-29T20:19:03.590Z,4.65
2023-06-29T20:21:30.669Z,5.80
2023-06-29T20:23:58.000Z,5.45
2023-06-29T20:26:26.129Z,7.07
2023-06-29T20:28:53.726Z,5.65
2023-06-29T20:31:20.860Z,6.00
2023-06-29T20:33:48.177Z,5.13
2023-06-29T20:36:15.503Z,5.45
2023-06-29T20:38:43.386Z,5.20
2023-06-29T20:41:10.602Z,5.75
2023-06-29T20:43:37.895Z,4.90
2023-06-29T20:46:06.469Z,5.38
2023-06-29T20:48:34.985Z,3.63
2023-06-29T20:51:16.181Z,4.90
2023-06-29T20:53:45.635Z,5.13
2023-06-29T20:56:12.828Z,5.13
2023-06-29T20:58:40.202Z,6.30
2023-06-29T21:01:07.469Z,5.43
2023-06-29T21:03:35.430Z,5.05
2023-06-29T21:06:02.902Z,5.53
2023-06-29T21:08:30.969Z,4.15
2023-06-29T21:10:58.009Z,4.97
2023-06-29T21:13:25.990Z,5.05
2023-06-29T21:15:53.441Z,5.35
2023-06-29T21:18:21.349Z,6.30
2023-06-29T21:20:48.683Z,5.88
2023-06-29T21:23:16.140Z,5.47
2023-06-29T21:25:43.516Z,5.00
2023-06-29T21:28:12.879Z,4.70
2023-06-29T21:30:40.162Z,5.40
2023-06-29T21:33:08.470Z,5.82
2023-06-29T21:35:36.147Z,5.03
2023-06-29T21:38:03.987Z,6.20
2023-06-29T21:40:31.019Z,4.03
2023-06-29T21:42:58.410Z,4.30
2023-06-29T21:45:27.817Z,4.22
2023-06-29T21:47:55.553Z,4.53
2023-06-29T21:50:22.964Z,5.18
2023-06-29T21:52:50.453Z,3.45
2023-06-29T21:55:18.411Z,4.40
2023-06-29T21:57:45.792Z,4.32
2023-06-29T22:00:14.234Z,4.40
2023-06-29T22:02:44.318Z,4.28
2023-06-29T22:05:13.670Z,4.25
2023-06-29T22:07:41.751Z,4.90
2023-06-29T22:10:10.257Z,4.32
2023-06-29T22:12:43.342Z,5.47
2023-06-29T22:15:14.211Z,4.57
2023-06-29T22:17:42.859Z,7.68
2023-06-29T22:20:12.049Z,6.03
2023-06-29T22:22:39.716Z,5.40
2023-06-29T22:25:08.532Z,5.95
2023-06-29T22:27:36.546Z,5.13
2023-06-29T22:30:04.895Z,6.07
2023-06-29T22:32:32.462Z,4.97
2023-06-29T22:34:59.480Z,5.35
2023-06-29T22:37:27.089Z,5.93
2023-06-29T22:39:56.159Z,4.85
2023-06-29T22:42:23.493Z,5.45
2023-06-29T22:44:50.581Z,4.97
2023-06-29T22:47:18.035Z,5.70
2023-06-29T22:49:45.149Z,5.57
2023-06-29T22:52:12.562Z,4.97
2023-06-29T22:54:39.608Z,6.35
2023-06-29T22:57:07.021Z,4.88
2023-06-29T22:59:34.024Z,5.93
2023-06-29T23:02:05.527Z,5.30
2023-06-29T23:04:32.569Z,5.05
2023-06-29T23:07:02.393Z,6.38
2023-06-29T23:09:30.774Z,5.30
2023-06-29T23:12:04.402Z,8.48
2023-06-29T23:14:34.710Z,5.20
2023-06-29T23:17:04.374Z,7.40
2023-06-29T23:19:34.976Z,5.30
2023-06-29T23:22:04.075Z,6.32
2023-06-29T23:24:31.121Z,6.85
2023-06-29T23:26:58.573Z,5.47
2023-06-29T23:29:25.659Z,6.97
2023-06-29T23:31:54.452Z,5.63
2023-06-29T23:34:22.510Z,6.22
2023-06-29T23:36:50.056Z,6.15
2023-06-29T23:39:17.032Z,7.20
2023-06-29T23:41:44.442Z,6.13
2023-06-29T23:44:12.112Z,5.43
2023-06-29T23:46:45.016Z,5.35
2023-06-29T23:49:19.305Z,6.30
2023-06-29T23:51:48.398Z,5.35
2023-06-29T23:54:16.449Z,6.57
2023-06-29T23:56:45.996Z,7.03
2023-06-29T23:59:13.322Z,6.07
